createdAt,value
2022-09-30T15:43:51.906Z,100680.64
2022-09-30T15:46:29.792Z,100680.83
2022-09-30T15:49:03.728Z,100686.63
2022-09-30T15:51:39.298Z,100692.86
2022-09-30T15:54:37.790Z,100697.08
2022-09-30T15:57:42.977Z,100700.09
2022-09-30T16:00:36.334Z,100706.69
2022-09-30T16:03:31.320Z,100707.36
2022-09-30T16:06:14.057Z,100711.83
2022-09-30T16:08:49.191Z,100716.20
2022-09-30T16:11:26.758Z,100719.58
2022-09-30T16:13:59.608Z,100724.80
2022-09-30T16:16:33.847Z,100723.27
2022-09-30T16:19:07.148Z,100724.54
2022-09-30T16:21:51.066Z,100730.27
2022-09-30T16:24:47.787Z,100734.70
2022-09-30T16:27:29.970Z,100737.35
2022-09-30T16:30:00.735Z,100737.86
2022-09-30T16:32:37.028Z,100736.86
2022-09-30T16:35:16.637Z,100740.26
2022-09-30T16:37:49.822Z,100739.39
2022-09-30T16:40:27.148Z,100741.06
2022-09-30T16:43:01.319Z,100744.73
2022-09-30T16:45:36.738Z,100748.39
2022-09-30T16:48:17.099Z,100750.58
2022-09-30T16:50:52.236Z,100753.12
2022-09-30T16:53:24.449Z,100755.98
2022-09-30T16:55:56.742Z,100760.85
2022-09-30T16:58:28.988Z,100763.67
2022-09-30T17:01:01.463Z,100764.15
2022-09-30T17:03:33.753Z,100768.96
2022-09-30T17:06:06.226Z,100773.00
2022-09-30T17:08:38.376Z,100777.95
2022-09-30T17:11:11.131Z,100781.00
2022-09-30T17:13:43.678Z,100783.10
2022-09-30T17:16:15.990Z,100785.30
2022-09-30T17:18:48.221Z,100786.81
2022-09-30T17:21:19.697Z,100787.12
2022-09-30T17:23:52.012Z,100792.53
2022-09-30T17:26:24.278Z,100795.04
2022-09-30T17:29:00.240Z,100798.76
2022-09-30T17:31:41.030Z,100796.09
2022-09-30T17:34:12.128Z,100801.13
2022-09-30T17:36:44.381Z,100802.34
2022-09-30T17:39:16.807Z,100802.79
2022-09-30T17:42:04.811Z,100799.31
2022-09-30T17:44:39.220Z,100804.93
2022-09-30T17:47:11.521Z,100805.16
2022-09-30T17:49:43.692Z,100808.94
2022-09-30T17:52:16.956Z,100809.70
2022-09-30T17:54:52.264Z,100813.42
2022-09-30T17:57:24.959Z,100814.35
2022-09-30T17:59:59.075Z,100814.75
2022-09-30T18:02:31.830Z,100817.14
2022-09-30T18:05:04.218Z,100816.45
2022-09-30T18:07:36.571Z,100816.67
2022-09-30T18:10:08.110Z,100814.97
2022-09-30T18:12:40.282Z,100816.10
2022-09-30T18:15:11.743Z,100817.77
2022-09-30T18:17:43.950Z,100822.40
2022-09-30T18:20:14.756Z,100827.70
2022-09-30T18:22:47.029Z,100830.05
2022-09-30T18:25:24.159Z,100832.85
2022-09-30T18:27:58.719Z,100829.45
2022-09-30T18:30:31.063Z,100834.55
2022-09-30T18:33:01.605Z,100837.29
2022-09-30T18:35:34.632Z,100838.63
2022-09-30T18:38:07.474Z,100841.69
2022-09-30T18:40:42.232Z,100846.82
2022-09-30T18:43:15.425Z,100852.95
2022-09-30T18:45:56.706Z,100851.86
2022-09-30T18:48:29.382Z,100853.63
2022-09-30T18:51:07.128Z,100851.65
2022-09-30T18:53:39.485Z,100857.06
2022-09-30T18:56:11.965Z,100853.20
2022-09-30T18:58:44.329Z,100854.15
2022-09-30T19:01:16.912Z,100856.51
2022-09-30T19:03:49.488Z,100861.05
2022-09-30T19:06:21.896Z,100864.80
2022-09-30T19:08:54.363Z,100868.89
2022-09-30T19:11:28.379Z,100868.97
2022-09-30T19:14:02.759Z,100871.70
2022-09-30T19:16:38.646Z,100871.73
2022-09-30T19:19:12.202Z,100871.09
2022-09-30T19:21:44.986Z,100871.29
2022-09-30T19:24:18.427Z,100878.16
2022-09-30T19:26:52.687Z,100881.54
2022-09-30T19:29:25.110Z,100878.27
2022-09-30T19:31:57.786Z,100878.27
2022-09-30T19:34:32.562Z,100885.61
2022-09-30T19:37:05.684Z,100891.77
2022-09-30T19:39:45.957Z,100892.08
2022-09-30T19:42:18.531Z,100890.77
2022-09-30T19:44:52.122Z,100888.31
2022-09-30T19:47:24.800Z,100888.22
2022-09-30T19:49:55.396Z,100889.77
2022-09-30T19:52:27.665Z,100897.29
2022-09-30T19:55:10.103Z,100900.86
2022-09-30T19:57:45.596Z,100902.23
2022-09-30T20:00:18.133Z,100905.63
2022-09-30T20:02:50.750Z,100903.67
2022-09-30T20:05:23.750Z,100903.71
2022-09-30T20:07:56.347Z,100904.86
2022-09-30T20:10:28.492Z,100907.42
2022-09-30T20:12:59.815Z,100908.38
2022-09-30T20:15:49.458Z,100908.34
2022-09-30T20:18:24.262Z,100910.77
2022-09-30T20:20:57.257Z,100907.74
2022-09-30T20:23:29.935Z,100908.84
2022-09-30T20:26:04.045Z,100909.84
2022-09-30T20:28:36.750Z,100912.15
2022-09-30T20:31:11.244Z,100915.17
2022-09-30T20:33:43.869Z,100912.42
2022-09-30T20:36:16.321Z,100916.46
2022-09-30T20:38:48.933Z,100915.19
2022-09-30T20:41:21.212Z,100912.06
2022-09-30T20:43:53.245Z,100912.38
2022-09-30T20:46:32.127Z,100919.25
2022-09-30T20:49:05.541Z,100919.66
2022-09-30T20:51:37.934Z,100919.24
2022-09-30T20:54:10.420Z,100923.98
2022-09-30T20:57:05.748Z,100927.75
2022-09-30T20:59:35.270Z,100925.69
2022-09-30T21:02:07.337Z,100924.10
2022-09-30T21:04:39.630Z,100926.09
2022-09-30T21:07:12.059Z,100926.70
2022-09-30T21:09:44.353Z,100926.97
2022-09-30T21:12:17.002Z,100924.39
2022-09-30T21:14:49.292Z,100925.20
2022-09-30T21:17:19.863Z,100928.45
2022-09-30T21:19:52.100Z,100932.23
2022-09-30T21:22:24.316Z,100932.41
2022-09-30T21:24:56.512Z,100938.89
2022-09-30T21:27:27.252Z,100938.17
2022-09-30T21:29:59.598Z,100938.80
2022-09-30T21:32:32.688Z,100943.42
2022-09-30T21:35:06.356Z,100942.95
2022-09-30T21:37:38.630Z,100944.02
2022-09-30T21:40:10.121Z,100949.87
2022-09-30T21:42:42.390Z,100951.21
2022-09-30T21:45:13.076Z,100952.71
2022-09-30T21:47:45.488Z,100953.66
2022-09-30T21:50:16.175Z,100950.89
2022-09-30T21:52:49.432Z,100948.77
2022-09-30T21:55:21.689Z,100949.44
2022-09-30T21:57:53.902Z,100953.45
2022-09-30T22:00:26.150Z,100954.48
2022-09-30T22:02:58.923Z,100956.85
2022-09-30T22:05:31.181Z,100956.14
2022-09-30T22:08:05.102Z,100958.91
2022-09-30T22:10:37.544Z,100959.54
2022-09-30T22:13:11.915Z,100958.35
2022-09-30T22:15:44.956Z,100958.34
2022-09-30T22:18:18.530Z,100961.98
2022-09-30T22:20:51.559Z,100966.95
2022-09-30T22:23:23.783Z,100967.89
2022-09-30T22:25:57.565Z,100973.39
2022-09-30T22:28:29.792Z,100974.34
2022-09-30T22:31:01.986Z,100971.58
2022-09-30T22:33:51.810Z,100970.43
2022-09-30T22:36:41.590Z,100968.63
2022-09-30T22:39:13.767Z,100971.48
2022-09-30T22:41:46.236Z,100969.92
2022-09-30T22:44:18.368Z,100970.58
2022-09-30T22:46:51.355Z,100970.36
2022-09-30T22:49:24.891Z,100971.27
2022-09-30T22:51:58.058Z,100973.70
2022-09-30T22:54:31.023Z,100978.98
2022-09-30T22:57:03.356Z,100983.86
2022-09-30T22:59:33.896Z,100992.20
2022-09-30T23:02:06.388Z,101001.89
2022-09-30T23:04:38.580Z,101005.33
2022-09-30T23:07:11.260Z,101009.54
2022-09-30T23:09:43.464Z,101012.19
2022-09-30T23:12:15.816Z,101013.67
2022-09-30T23:14:46.284Z,101006.55
2022-09-30T23:17:18.448Z,101010.46
2022-09-30T23:19:50.558Z,101014.78
2022-09-30T23:22:22.958Z,101020.41
2022-09-30T23:24:53.456Z,101022.20
2022-09-30T23:27:25.629Z,101020.30
2022-09-30T23:29:57.809Z,101022.38
2022-09-30T23:32:29.893Z,101023.59
2022-09-30T23:35:02.173Z,101025.42
2022-09-30T23:37:34.374Z,101028.77
2022-09-30T23:40:07.919Z,101028.16
2022-09-30T23:42:40.118Z,101025.55
2022-09-30T23:45:13.416Z,101027.80
2022-09-30T23:47:49.464Z,101028.27
2022-09-30T23:50:21.636Z,101029.49
2022-09-30T23:52:53.792Z,101030.71
2022-09-30T23:55:26.681Z,101029.91
2022-09-30T23:57:59.118Z,101030.88
